Los Angeles, California
Traffic Map
Current Weather Conditions
Los Angeles, California
Clear
Clear
70°
Feels Like: 70°
Wind Chill: 70° Ceiling: Unl
Heat Index: 70° Visibility: 10mi
Dew Point: 53° Wind: 5mph
Humidity: 55% Direction: ° ()
Pressure: 29.94in Gusts: 0mph
Raw Report DataKCQT 250047Z AUTO VRB04KT 10SM CLR 21/12 A2994 RMK AO2 SLP135 T02110117
Traffic Incident Summary
Active as of:
Severity:
Category:
InformationThere was an issue retrieving the traffic information for this location. Please try a different location or try again shortly.
Advertisements
Track Severe Weather on mobile